createdAt,value
2018-08-28T00:01:14.928Z,9.68
2018-08-28T00:03:43.273Z,9.69
2018-08-28T00:06:12.076Z,9.80
2018-08-28T00:08:40.408Z,9.85
2018-08-28T00:11:08.751Z,9.79
2018-08-28T00:13:37.084Z,9.75
2018-08-28T00:16:05.476Z,9.63
2018-08-28T00:18:34.246Z,9.68
2018-08-28T00:21:02.640Z,9.68
2018-08-28T00:23:31.024Z,9.72
2018-08-28T00:25:59.369Z,9.81
2018-08-28T00:28:27.700Z,9.95
2018-08-28T00:30:56.088Z,10.02
2018-08-28T00:33:24.420Z,10.13
2018-08-28T00:35:53.204Z,10.12
2018-08-28T00:38:21.548Z,10.08
2018-08-28T00:40:49.920Z,10.06
2018-08-28T00:43:18.534Z,10.07
2018-08-28T00:45:46.872Z,10.11
2018-08-28T00:48:15.485Z,9.98
2018-08-28T00:50:44.043Z,10.00
2018-08-28T00:53:13.188Z,10.07
2018-08-28T00:55:41.537Z,10.19
2018-08-28T00:58:09.884Z,10.27
2018-08-28T01:00:38.252Z,10.29
2018-08-28T01:03:06.649Z,10.41
2018-08-28T01:05:34.976Z,10.46
2018-08-28T01:08:03.324Z,10.52
2018-08-28T01:10:31.748Z,10.50
2018-08-28T01:13:00.104Z,10.64
2018-08-28T01:15:28.458Z,10.54
2018-08-28T01:17:56.826Z,10.52
2018-08-28T01:20:25.181Z,10.47
2018-08-28T01:22:53.540Z,10.59
2018-08-28T01:25:22.104Z,10.60
2018-08-28T01:27:50.472Z,10.51
2018-08-28T01:30:22.936Z,10.58
2018-08-28T01:32:51.345Z,10.43
2018-08-28T01:35:19.808Z,10.30
2018-08-28T01:37:48.152Z,10.21
2018-08-28T01:40:16.784Z,10.28
2018-08-28T01:42:45.158Z,10.07
2018-08-28T01:45:13.492Z,10.00
2018-08-28T01:47:42.195Z,9.89
2018-08-28T01:50:10.516Z,9.81
2018-08-28T01:52:38.911Z,9.88
2018-08-28T01:55:07.285Z,10.03
2018-08-28T01:57:35.649Z,10.08
2018-08-28T02:00:04.208Z,10.25
2018-08-28T02:02:32.556Z,10.36
2018-08-28T02:05:00.912Z,10.37
2018-08-28T02:07:29.666Z,10.65
2018-08-28T02:09:58.028Z,10.69
2018-08-28T02:12:26.809Z,10.75
2018-08-28T02:14:55.128Z,10.73
2018-08-28T02:17:23.532Z,10.63
2018-08-28T02:19:51.876Z,10.69
2018-08-28T02:22:20.212Z,10.73
2018-08-28T02:24:48.551Z,10.64
2018-08-28T02:27:17.260Z,10.59
2018-08-28T02:29:45.592Z,10.53
2018-08-28T02:32:13.939Z,10.53
2018-08-28T02:34:42.284Z,10.46
2018-08-28T02:37:10.968Z,10.41
2018-08-28T02:39:39.313Z,10.30
2018-08-28T02:42:07.652Z,10.25
2018-08-28T02:44:36.004Z,10.21
2018-08-28T02:47:04.415Z,10.29
2018-08-28T02:49:32.740Z,10.30
2018-08-28T02:52:01.100Z,10.28
2018-08-28T02:54:29.470Z,10.12
2018-08-28T02:56:57.845Z,10.07
2018-08-28T02:59:26.596Z,9.99
2018-08-28T03:01:54.924Z,10.05
2018-08-28T03:04:23.284Z,9.97
2018-08-28T03:06:51.608Z,10.05
2018-08-28T03:09:19.956Z,9.98
2018-08-28T03:11:48.293Z,9.91
2018-08-28T03:14:16.705Z,9.83
2018-08-28T03:16:45.053Z,9.89
2018-08-28T03:19:13.408Z,9.98
2018-08-28T03:21:41.792Z,9.98
2018-08-28T03:24:10.157Z,10.06
2018-08-28T03:26:38.941Z,10.18
2018-08-28T03:29:07.779Z,10.19
2018-08-28T03:31:36.004Z,10.25
2018-08-28T03:34:04.756Z,10.34
2018-08-28T03:36:33.101Z,10.48
2018-08-28T03:39:01.484Z,10.51
2018-08-28T03:41:30.195Z,10.54
2018-08-28T03:43:58.612Z,10.56
2018-08-28T03:46:26.935Z,10.62
2018-08-28T03:48:55.320Z,10.65
2018-08-28T03:51:23.707Z,10.67
2018-08-28T03:53:52.309Z,10.62
2018-08-28T03:56:20.627Z,10.57
2018-08-28T03:58:48.972Z,10.48
2018-08-28T04:01:17.301Z,10.47
2018-08-28T04:03:45.701Z,10.61
2018-08-28T04:06:14.132Z,10.59
2018-08-28T04:08:42.499Z,10.71
2018-08-28T04:11:10.836Z,10.68
2018-08-28T04:13:39.247Z,10.79
2018-08-28T04:16:07.564Z,10.81
2018-08-28T04:18:36.908Z,10.88
2018-08-28T04:21:05.256Z,10.96
2018-08-28T04:23:33.604Z,11.00
2018-08-28T04:26:01.941Z,11.09
2018-08-28T04:28:30.309Z,11.20
2018-08-28T04:30:58.670Z,11.13
2018-08-28T04:33:27.005Z,11.20
2018-08-28T04:35:55.345Z,11.26
2018-08-28T04:38:23.689Z,11.26
2018-08-28T04:40:52.063Z,11.14
2018-08-28T04:43:20.393Z,11.21
2018-08-28T04:45:48.749Z,11.15
2018-08-28T04:48:17.137Z,11.12
2018-08-28T04:50:45.608Z,11.33
2018-08-28T04:53:13.948Z,11.40
2018-08-28T04:55:42.584Z,11.57
2018-08-28T04:58:10.940Z,11.57
2018-08-28T05:00:39.362Z,11.59
2018-08-28T05:03:07.710Z,11.61
2018-08-28T05:05:36.060Z,11.73
2018-08-28T05:08:04.396Z,11.84
2018-08-28T05:10:32.758Z,11.90
2018-08-28T05:13:01.112Z,11.99
2018-08-28T05:15:29.476Z,12.14
2018-08-28T05:17:57.807Z,12.34
2018-08-28T05:20:26.472Z,12.52
2018-08-28T05:22:54.815Z,12.74
2018-08-28T05:25:23.164Z,12.75
2018-08-28T05:27:51.957Z,12.78
2018-08-28T05:30:20.371Z,12.97
2018-08-28T05:32:48.692Z,13.21
2018-08-28T05:35:17.064Z,13.40
2018-08-28T05:37:45.396Z,13.53
2018-08-28T05:40:14.218Z,13.69
2018-08-28T05:42:42.552Z,13.72
2018-08-28T05:45:10.925Z,13.76
2018-08-28T05:47:39.244Z,13.96
2018-08-28T05:50:07.635Z,13.99
2018-08-28T05:52:35.985Z,14.04
2018-08-28T05:55:04.396Z,14.17
2018-08-28T05:57:33.096Z,14.25
2018-08-28T06:00:01.449Z,14.48
2018-08-28T06:02:29.797Z,14.45
2018-08-28T06:04:58.166Z,14.52
2018-08-28T06:07:26.539Z,14.61
2018-08-28T06:09:54.883Z,14.74
2018-08-28T06:12:23.249Z,14.90
2018-08-28T06:14:51.983Z,15.17
2018-08-28T06:17:20.652Z,15.34
2018-08-28T06:19:48.992Z,16.02
2018-08-28T06:22:17.323Z,16.58
2018-08-28T06:24:46.040Z,17.24
2018-08-28T06:27:14.377Z,17.42
2018-08-28T06:29:42.732Z,18.05
2018-08-28T06:32:11.064Z,19.03
2018-08-28T06:34:39.420Z,20.20
2018-08-28T06:37:07.786Z,20.56
2018-08-28T06:39:37.057Z,21.40
2018-08-28T06:42:05.412Z,21.78
2018-08-28T06:44:33.766Z,21.87
2018-08-28T06:47:02.312Z,20.91
2018-08-28T06:49:30.668Z,21.22
2018-08-28T06:51:59.028Z,20.41
2018-08-28T06:54:27.404Z,19.86
2018-08-28T06:56:56.293Z,21.64
2018-08-28T06:59:24.512Z,23.34
2018-08-28T07:01:53.078Z,22.11
2018-08-28T07:04:22.632Z,23.93
2018-08-28T07:06:50.989Z,23.36
2018-08-28T07:09:19.332Z,25.00
2018-08-28T07:11:47.716Z,25.99
2018-08-28T07:14:16.057Z,24.43
2018-08-28T07:16:44.733Z,23.25
2018-08-28T07:19:13.080Z,24.16
2018-08-28T07:21:41.476Z,24.30
2018-08-28T07:24:10.933Z,24.95
2018-08-28T07:26:39.285Z,25.68
2018-08-28T07:29:07.835Z,25.52
2018-08-28T07:31:36.226Z,27.57
2018-08-28T07:34:04.594Z,27.68
2018-08-28T07:36:32.964Z,27.81
2018-08-28T07:39:01.305Z,28.38
2018-08-28T07:41:30.428Z,29.41
2018-08-28T07:43:58.769Z,27.43
2018-08-28T07:46:27.503Z,26.21
2018-08-28T07:48:55.849Z,26.85
2018-08-28T07:51:24.245Z,28.16
2018-08-28T07:53:52.714Z,27.92
2018-08-28T07:56:21.065Z,28.11
2018-08-28T07:58:49.544Z,25.69
2018-08-28T08:01:17.942Z,27.90
2018-08-28T08:03:46.285Z,27.75
2018-08-28T08:06:14.642Z,25.05
2018-08-28T08:08:42.979Z,25.08
2018-08-28T08:11:11.821Z,23.26
2018-08-28T08:13:40.157Z,25.18
2018-08-28T08:16:08.579Z,24.40
2018-08-28T08:18:36.884Z,21.39
2018-08-28T08:21:06.153Z,22.62
2018-08-28T08:23:34.500Z,25.25
2018-08-28T08:26:03.079Z,25.09
2018-08-28T08:28:31.440Z,22.85
2018-08-28T08:31:00.084Z,21.77
2018-08-28T08:33:28.428Z,20.97
2018-08-28T08:35:56.788Z,21.88
2018-08-28T08:38:26.068Z,21.56
2018-08-28T08:40:54.420Z,22.15
2018-08-28T08:43:22.777Z,21.53
2018-08-28T08:45:51.124Z,21.03
2018-08-28T08:48:19.489Z,21.10
2018-08-28T08:50:47.826Z,21.20
2018-08-28T08:53:16.188Z,21.44
2018-08-28T08:55:45.431Z,21.42
2018-08-28T08:58:13.792Z,21.79
2018-08-28T09:00:42.128Z,20.72
2018-08-28T09:03:10.916Z,20.75
2018-08-28T09:05:39.278Z,21.10
2018-08-28T09:08:07.930Z,21.62
2018-08-28T09:10:36.477Z,21.81
2018-08-28T09:13:04.868Z,22.26
2018-08-28T09:15:33.939Z,22.59
2018-08-28T09:18:02.299Z,23.18
2018-08-28T09:20:30.652Z,25.56
2018-08-28T09:22:59.009Z,28.87
2018-08-28T09:25:27.812Z,30.92
2018-08-28T09:27:56.157Z,32.20
2018-08-28T09:30:24.744Z,34.20
2018-08-28T09:32:53.092Z,33.77
2018-08-28T09:35:21.465Z,32.39
2018-08-28T09:37:49.820Z,28.02
2018-08-28T09:40:18.164Z,27.57
2018-08-28T09:42:46.537Z,25.86
2018-08-28T09:45:14.888Z,24.35
2018-08-28T09:47:43.241Z,23.93
2018-08-28T09:50:11.588Z,23.85
2018-08-28T09:52:39.933Z,24.38
2018-08-28T09:55:08.285Z,28.83
2018-08-28T09:57:36.850Z,30.33
2018-08-28T10:00:05.907Z,33.17
2018-08-28T10:02:34.393Z,34.66
2018-08-28T10:05:02.985Z,31.78
2018-08-28T10:07:31.357Z,29.73
2018-08-28T10:09:59.699Z,32.15
2018-08-28T10:12:28.441Z,30.68
2018-08-28T10:14:56.772Z,30.46
2018-08-28T10:17:25.201Z,28.86
2018-08-28T10:19:53.488Z,28.09
2018-08-28T10:22:21.840Z,27.56
2018-08-28T10:24:51.148Z,27.56
2018-08-28T10:27:19.552Z,27.11
2018-08-28T10:29:47.905Z,26.66
2018-08-28T10:32:16.263Z,26.63
2018-08-28T10:34:44.597Z,25.55
2018-08-28T10:37:12.948Z,24.93
2018-08-28T10:39:41.290Z,26.04
2018-08-28T10:42:09.633Z,26.01
2018-08-28T10:44:38.592Z,27.67
2018-08-28T10:47:07.257Z,31.59
2018-08-28T10:49:35.604Z,35.28
2018-08-28T10:52:04.008Z,36.76
2018-08-28T10:54:32.531Z,36.69
2018-08-28T10:57:01.405Z,37.26
2018-08-28T10:59:29.756Z,36.17
2018-08-28T11:01:58.104Z,36.11
2018-08-28T11:04:26.809Z,35.11
2018-08-28T11:06:55.155Z,33.20
2018-08-28T11:09:23.512Z,31.93
2018-08-28T11:11:52.286Z,32.89
2018-08-28T11:14:21.044Z,35.48
2018-08-28T11:16:49.829Z,36.77
2018-08-28T11:19:18.208Z,35.99
2018-08-28T11:21:46.562Z,35.04
2018-08-28T11:24:14.924Z,36.10
2018-08-28T11:26:43.245Z,36.28
2018-08-28T11:29:11.892Z,35.09
2018-08-28T11:31:40.240Z,33.38
2018-08-28T11:34:08.609Z,34.02
2018-08-28T11:36:36.972Z,33.51
2018-08-28T11:39:06.057Z,31.44
2018-08-28T11:41:34.429Z,33.62
2018-08-28T11:44:03.089Z,35.46
2018-08-28T11:46:31.438Z,36.19
2018-08-28T11:48:59.815Z,37.51
2018-08-28T11:51:28.554Z,37.37
2018-08-28T11:53:56.904Z,35.37
2018-08-28T11:56:25.338Z,35.42
2018-08-28T11:58:54.101Z,34.68
2018-08-28T12:01:22.468Z,35.71
2018-08-28T12:03:50.844Z,35.26
2018-08-28T12:06:19.821Z,33.84
2018-08-28T12:08:48.168Z,35.40
2018-08-28T12:11:16.520Z,35.67
2018-08-28T12:13:44.892Z,35.81
2018-08-28T12:16:13.283Z,35.67
2018-08-28T12:18:41.638Z,33.62
2018-08-28T12:21:09.985Z,34.70
2018-08-28T12:23:38.768Z,35.14
2018-08-28T12:26:07.520Z,35.96
2018-08-28T12:28:35.872Z,36.99
2018-08-28T12:31:04.215Z,33.63
2018-08-28T12:33:32.717Z,35.26
2018-08-28T12:36:01.062Z,35.48
2018-08-28T12:38:29.420Z,34.83
2018-08-28T12:40:57.844Z,35.27
2018-08-28T12:43:26.424Z,36.31
2018-08-28T12:45:54.772Z,35.76
2018-08-28T12:48:23.124Z,35.49
2018-08-28T12:50:51.501Z,35.98
2018-08-28T12:53:19.934Z,35.34
2018-08-28T12:55:48.470Z,34.55
2018-08-28T12:58:17.076Z,33.68
2018-08-28T13:00:45.643Z,33.16
2018-08-28T13:03:14.592Z,32.78
2018-08-28T13:05:42.939Z,31.82
2018-08-28T13:08:11.292Z,29.96
2018-08-28T13:10:39.659Z,31.32
2018-08-28T13:13:08.004Z,33.87
2018-08-28T13:15:36.369Z,34.01
2018-08-28T13:18:05.120Z,34.89
2018-08-28T13:20:33.464Z,35.72
2018-08-28T13:23:01.824Z,35.92
2018-08-28T13:25:30.309Z,36.50
2018-08-28T13:27:58.548Z,36.10
2018-08-28T13:30:27.008Z,35.45
2018-08-28T13:32:55.340Z,34.29
2018-08-28T13:35:23.700Z,34.70
2018-08-28T13:37:52.649Z,33.48
2018-08-28T13:40:21.072Z,32.81
2018-08-28T13:42:49.433Z,30.04
2018-08-28T13:45:17.820Z,31.12
2018-08-28T13:47:46.157Z,29.47
2018-08-28T13:50:14.525Z,32.48
2018-08-28T13:52:42.856Z,33.99
2018-08-28T13:55:11.233Z,33.21
2018-08-28T13:57:39.760Z,32.82
2018-08-28T14:00:08.239Z,34.51
2018-08-28T14:02:36.499Z,33.98
2018-08-28T14:05:04.918Z,35.01
2018-08-28T14:07:33.257Z,34.84
2018-08-28T14:10:01.686Z,35.07
2018-08-28T14:12:30.039Z,35.16
2018-08-28T14:14:58.485Z,33.75
2018-08-28T14:17:26.876Z,34.10
2018-08-28T14:19:55.404Z,33.81
2018-08-28T14:22:23.760Z,33.15
2018-08-28T14:24:52.265Z,31.24
2018-08-28T14:27:20.648Z,33.06
2018-08-28T14:29:49.024Z,33.25
2018-08-28T14:32:17.614Z,33.73
2018-08-28T14:34:45.976Z,33.24
2018-08-28T14:37:14.332Z,32.93
2018-08-28T14:39:42.711Z,32.71
2018-08-28T14:42:11.697Z,31.90
2018-08-28T14:44:40.099Z,31.76
2018-08-28T14:47:08.465Z,31.88
2018-08-28T14:49:36.937Z,30.00
2018-08-28T14:52:05.260Z,29.71
2018-08-28T14:54:33.621Z,29.51
2018-08-28T14:57:02.076Z,30.03
2018-08-28T14:59:30.429Z,29.90
2018-08-28T15:01:58.808Z,30.91
2018-08-28T15:04:27.160Z,31.12
2018-08-28T15:06:55.563Z,31.96
2018-08-28T15:09:23.965Z,30.16
2018-08-28T15:11:52.326Z,29.87
2018-08-28T15:14:20.676Z,30.04
2018-08-28T15:16:54.841Z,30.15
2018-08-28T15:19:23.340Z,29.19
2018-08-28T15:21:51.692Z,28.31
2018-08-28T15:24:20.208Z,28.78
2018-08-28T15:26:49.216Z,29.52
2018-08-28T15:29:17.560Z,29.20
2018-08-28T15:31:45.915Z,29.95
2018-08-28T15:34:14.637Z,29.92
2018-08-28T15:36:43.031Z,29.98
2018-08-28T15:39:15.788Z,29.56
2018-08-28T15:41:50.616Z,28.92
2018-08-28T15:44:19.943Z,28.68
2018-08-28T15:46:48.291Z,28.32
2018-08-28T15:49:17.356Z,28.03
2018-08-28T15:51:45.751Z,28.74
2018-08-28T15:54:14.076Z,27.88
2018-08-28T15:56:42.585Z,26.54
2018-08-28T15:59:10.941Z,27.40
2018-08-28T16:01:39.292Z,26.82
2018-08-28T16:04:10.417Z,26.44
2018-08-28T16:06:38.800Z,25.83
2018-08-28T16:09:07.621Z,25.97
2018-08-28T16:11:35.987Z,25.82
2018-08-28T16:14:04.431Z,25.88
2018-08-28T16:16:32.777Z,25.88
2018-08-28T16:19:01.123Z,26.12
2018-08-28T16:21:33.905Z,25.74
2018-08-28T16:24:02.244Z,25.08
2018-08-28T16:26:30.608Z,25.59
2018-08-28T16:28:58.948Z,25.45
2018-08-28T16:31:27.633Z,24.89
2018-08-28T16:33:56.028Z,24.53
2018-08-28T16:36:24.331Z,24.78
2018-08-28T16:38:52.698Z,24.71
2018-08-28T16:41:21.049Z,24.52
2018-08-28T16:43:49.388Z,24.57
2018-08-28T16:46:17.741Z,24.34
2018-08-28T16:48:46.056Z,24.33
2018-08-28T16:51:14.423Z,23.79
2018-08-28T16:53:42.760Z,23.77
2018-08-28T16:56:11.115Z,23.81
2018-08-28T16:58:39.464Z,23.89
2018-08-28T17:01:07.902Z,23.84
2018-08-28T17:03:36.204Z,23.77
2018-08-28T17:06:04.677Z,23.51
2018-08-28T17:08:33.036Z,23.39
2018-08-28T17:11:01.396Z,23.53
2018-08-28T17:13:29.732Z,23.26
2018-08-28T17:15:58.102Z,23.07
2018-08-28T17:18:26.453Z,23.05
2018-08-28T17:20:54.839Z,22.98
2018-08-28T17:23:24.540Z,22.89
2018-08-28T17:25:52.900Z,22.57
2018-08-28T17:28:22.276Z,22.59
2018-08-28T17:30:50.703Z,22.50
2018-08-28T17:33:19.123Z,22.38
2018-08-28T17:35:47.598Z,22.37
2018-08-28T17:38:15.966Z,22.33
2018-08-28T17:40:44.352Z,22.31
2018-08-28T17:43:12.688Z,22.17
2018-08-28T17:45:41.149Z,21.81
2018-08-28T17:48:09.475Z,21.87
2018-08-28T17:50:37.809Z,21.75
2018-08-28T17:53:06.168Z,21.72
2018-08-28T17:55:34.512Z,21.67
2018-08-28T17:58:02.864Z,21.65
2018-08-28T18:00:31.217Z,21.34
2018-08-28T18:02:59.740Z,21.23
2018-08-28T18:05:28.080Z,21.07
2018-08-28T18:07:56.457Z,21.00
2018-08-28T18:10:24.792Z,20.94
2018-08-28T18:12:53.176Z,20.81
2018-08-28T18:15:21.516Z,20.79
2018-08-28T18:17:49.881Z,20.45
2018-08-28T18:20:18.246Z,20.44
2018-08-28T18:22:47.074Z,20.41
2018-08-28T18:25:15.451Z,20.30
2018-08-28T18:27:43.832Z,20.19
2018-08-28T18:30:12.168Z,20.05
2018-08-28T18:32:40.540Z,20.02
2018-08-28T18:35:09.212Z,20.03
2018-08-28T18:37:37.612Z,19.76
2018-08-28T18:40:05.984Z,19.94
2018-08-28T18:42:34.360Z,19.71
2018-08-28T18:45:02.710Z,19.61
2018-08-28T18:47:31.116Z,19.51
2018-08-28T18:49:59.612Z,19.40
2018-08-28T18:52:27.945Z,19.30
2018-08-28T18:54:56.308Z,19.13
2018-08-28T18:57:24.664Z,19.16
2018-08-28T18:59:53.012Z,19.08
2018-08-28T19:02:21.584Z,19.20
2018-08-28T19:04:49.940Z,19.10
2018-08-28T19:07:18.300Z,18.99
2018-08-28T19:09:46.629Z,19.04
2018-08-28T19:12:14.977Z,19.01
2018-08-28T19:14:43.467Z,19.08
2018-08-28T19:17:11.817Z,18.97
2018-08-28T19:19:40.157Z,19.02
2018-08-28T19:22:08.988Z,19.05
2018-08-28T19:24:37.600Z,18.84
2018-08-28T19:27:06.144Z,18.50
2018-08-28T19:29:34.470Z,18.21
2018-08-28T19:32:02.859Z,18.39
2018-08-28T19:34:31.510Z,18.50
2018-08-28T19:36:59.905Z,18.63
2018-08-28T19:39:28.280Z,18.63
2018-08-28T19:41:56.657Z,18.45
2018-08-28T19:44:25.018Z,18.42
2018-08-28T19:46:53.629Z,18.29
2018-08-28T19:49:22.540Z,18.25
2018-08-28T19:51:53.049Z,17.95
2018-08-28T19:54:21.381Z,17.78
2018-08-28T19:56:49.734Z,17.76
2018-08-28T19:59:18.084Z,17.76
2018-08-28T20:01:46.437Z,17.66
2018-08-28T20:04:14.793Z,17.62
2018-08-28T20:06:43.145Z,17.45
2018-08-28T20:09:11.496Z,17.22
2018-08-28T20:11:39.824Z,17.20
2018-08-28T20:14:08.209Z,17.36
2018-08-28T20:16:36.620Z,17.51
2018-08-28T20:19:05.155Z,17.53
2018-08-28T20:21:34.106Z,17.38
2018-08-28T20:24:02.949Z,17.45
2018-08-28T20:26:31.368Z,17.56
2018-08-28T20:28:59.778Z,17.47
2018-08-28T20:31:28.125Z,17.48
2018-08-28T20:33:56.503Z,17.38
2018-08-28T20:36:24.844Z,17.20
2018-08-28T20:38:53.209Z,17.63
2018-08-28T20:41:21.581Z,17.34
2018-08-28T20:43:49.932Z,16.99
2018-08-28T20:46:18.996Z,16.67
2018-08-28T20:48:47.356Z,16.70
2018-08-28T20:51:15.712Z,16.98
2018-08-28T20:53:44.128Z,16.80
2018-08-28T20:56:12.420Z,16.57
2018-08-28T20:58:40.812Z,16.24
2018-08-28T21:01:09.152Z,16.07
2018-08-28T21:03:37.960Z,16.03
2018-08-28T21:06:06.596Z,16.48
2018-08-28T21:08:34.964Z,16.62
2018-08-28T21:11:03.301Z,16.52
2018-08-28T21:13:31.644Z,15.72
2018-08-28T21:15:59.972Z,15.59
2018-08-28T21:18:28.356Z,15.67
2018-08-28T21:20:56.720Z,15.66
2018-08-28T21:23:25.060Z,15.55
2018-08-28T21:25:53.434Z,15.55
2018-08-28T21:28:21.804Z,15.47
2018-08-28T21:30:50.144Z,15.33
2018-08-28T21:33:18.589Z,15.30
2018-08-28T21:35:46.942Z,15.29
2018-08-28T21:38:15.284Z,15.09
2018-08-28T21:40:43.624Z,15.05
2018-08-28T21:43:11.996Z,15.13
2018-08-28T21:45:41.005Z,15.30
2018-08-28T21:48:09.370Z,15.29
2018-08-28T21:50:37.720Z,15.23
2018-08-28T21:53:06.522Z,15.37
2018-08-28T21:55:34.884Z,15.31
2018-08-28T21:58:03.272Z,15.50
2018-08-28T22:00:31.618Z,15.36
2018-08-28T22:02:59.972Z,15.26
2018-08-28T22:05:31.096Z,14.94
2018-08-28T22:08:02.086Z,15.15
2018-08-28T22:10:32.344Z,15.32
2018-08-28T22:13:00.698Z,15.54
2018-08-28T22:15:29.235Z,15.27
2018-08-28T22:17:57.575Z,15.08
2018-08-28T22:20:25.905Z,15.60
2018-08-28T22:22:55.024Z,15.72
2018-08-28T22:25:23.549Z,15.68
2018-08-28T22:27:51.836Z,15.88
2018-08-28T22:30:20.175Z,15.81
2018-08-28T22:32:48.497Z,15.96
2018-08-28T22:35:16.837Z,15.57
2018-08-28T22:37:45.124Z,15.38
2018-08-28T22:40:14.078Z,15.18
2018-08-28T22:42:42.552Z,15.17
2018-08-28T22:45:10.993Z,15.16
2018-08-28T22:47:39.304Z,15.19
2018-08-28T22:50:07.948Z,14.96
2018-08-28T22:52:36.260Z,15.22
2018-08-28T22:55:04.721Z,15.32
2018-08-28T22:57:33.015Z,15.08
2018-08-28T23:00:01.378Z,14.87
2018-08-28T23:02:29.681Z,15.01
2018-08-28T23:04:58.008Z,14.74
2018-08-28T23:07:26.596Z,14.78
2018-08-28T23:09:54.932Z,14.74
2018-08-28T23:12:23.272Z,14.56
2018-08-28T23:14:51.612Z,14.50
2018-08-28T23:17:19.917Z,14.31
2018-08-28T23:19:48.248Z,14.23
2018-08-28T23:22:16.543Z,14.33
2018-08-28T23:24:45.292Z,14.66
2018-08-28T23:27:13.624Z,14.88
2018-08-28T23:29:41.945Z,15.13
2018-08-28T23:32:10.241Z,14.96
2018-08-28T23:34:38.567Z,14.93
2018-08-28T23:37:07.252Z,15.41
2018-08-28T23:39:35.563Z,15.85
2018-08-28T23:42:03.872Z,15.96
2018-08-28T23:44:32.188Z,16.11
2018-08-28T23:47:00.484Z,16.05
2018-08-28T23:49:28.787Z,15.92
2018-08-28T23:51:57.119Z,16.03
2018-08-28T23:54:25.428Z,15.85
2018-08-28T23:56:53.724Z,15.88
2018-08-28T23:59:22.040Z,15.92
